createdAt,value
2016-07-18T00:00:03.306Z,24.31
2016-07-18T00:01:04.581Z,24.3
2016-07-18T00:02:04.025Z,24.28
2016-07-18T00:03:05.883Z,24.27
2016-07-18T00:04:03.326Z,24.27
2016-07-18T00:05:04.740Z,24.28
2016-07-18T00:06:04.748Z,24.24
2016-07-18T00:07:04.750Z,24.3
2016-07-18T00:08:04.761Z,24.22
2016-07-18T00:09:03.343Z,24.3
2016-07-18T00:10:04.557Z,24.39
2016-07-18T00:11:04.777Z,24.46
2016-07-18T00:12:04.517Z,24.43
2016-07-18T00:13:04.074Z,24.39
2016-07-18T00:14:04.974Z,24.49
2016-07-18T00:15:03.377Z,24.45
2016-07-18T00:16:04.087Z,24.42
2016-07-18T00:17:04.813Z,24.43
2016-07-18T00:18:04.096Z,24.47
2016-07-18T00:19:04.816Z,24.37
2016-07-18T00:20:04.816Z,24.35
2016-07-18T00:21:04.819Z,24.27
2016-07-18T00:22:04.826Z,24.22
2016-07-18T00:23:04.132Z,24.22
2016-07-18T00:24:04.125Z,24.21
2016-07-18T00:25:05.944Z,24.09
2016-07-18T00:26:04.843Z,24.1
2016-07-18T00:27:04.142Z,24.1
2016-07-18T00:28:04.147Z,24.13
2016-07-18T00:29:04.150Z,24.16
2016-07-18T00:30:04.159Z,24.1
2016-07-18T00:31:04.159Z,24.13
2016-07-18T00:32:04.167Z,24.08
2016-07-18T00:33:04.879Z,24.15
2016-07-18T00:34:04.174Z,24.06
2016-07-18T00:35:04.176Z,24.03
2016-07-18T00:36:05.289Z,24.08
2016-07-18T00:37:04.184Z,24.12
2016-07-18T00:38:04.192Z,24.18
2016-07-18T00:39:03.487Z,24.09
2016-07-18T00:40:04.904Z,24.06
2016-07-18T00:41:04.205Z,24.21
2016-07-18T00:42:04.915Z,24.2
2016-07-18T00:43:04.212Z,24.21
2016-07-18T00:44:04.220Z,24.25
2016-07-18T00:45:06.031Z,24.16
2016-07-18T00:46:03.518Z,24.05
2016-07-18T00:47:05.337Z,24.13
2016-07-18T00:48:04.234Z,24.16
2016-07-18T00:49:04.236Z,24.1
2016-07-18T00:50:04.950Z,24.12
2016-07-18T00:51:04.244Z,24.2
2016-07-18T00:52:04.968Z,24.13
2016-07-18T00:53:04.962Z,24.21
2016-07-18T00:54:04.974Z,24.24
2016-07-18T00:55:04.970Z,24.32
2016-07-18T00:56:06.081Z,24.24
2016-07-18T00:57:04.276Z,24.27
2016-07-18T00:58:04.577Z,24.32
2016-07-18T00:59:04.994Z,24.3
2016-07-18T01:00:05.900Z,24.16
2016-07-18T01:01:03.586Z,24.21
2016-07-18T01:02:04.293Z,24.24
2016-07-18T01:03:05.010Z,24.21
2016-07-18T01:04:04.306Z,24.27
2016-07-18T01:05:04.308Z,24.28
2016-07-18T01:06:05.025Z,24.25
2016-07-18T01:07:05.028Z,24.3
2016-07-18T01:08:05.034Z,24.34
2016-07-18T01:09:04.331Z,24.35
2016-07-18T01:10:05.044Z,24.4
2016-07-18T01:11:05.346Z,24.39
2016-07-18T01:12:05.051Z,24.34
2016-07-18T01:13:03.644Z,24.4
2016-07-18T01:14:05.060Z,24.35
2016-07-18T01:15:05.069Z,24.28
2016-07-18T01:16:03.658Z,24.34
2016-07-18T01:17:03.670Z,24.25
2016-07-18T01:18:05.098Z,24.2
2016-07-18T01:19:04.380Z,24.18
2016-07-18T01:20:06.273Z,24.25
2016-07-18T01:21:04.395Z,24.32
2016-07-18T01:22:04.743Z,24.3
2016-07-18T01:23:03.697Z,24.22
2016-07-18T01:24:05.112Z,24.16
2016-07-18T01:25:04.415Z,24.25
2016-07-18T01:26:05.128Z,24.27
2016-07-18T01:27:05.131Z,24.35
2016-07-18T01:28:04.431Z,24.32
2016-07-18T01:29:04.433Z,24.3
2016-07-18T01:30:05.145Z,24.32
2016-07-18T01:31:05.634Z,24.35
2016-07-18T01:32:04.462Z,24.37
2016-07-18T01:33:04.956Z,24.31
2016-07-18T01:34:04.460Z,24.28
2016-07-18T01:35:06.291Z,24.34
2016-07-18T01:36:04.468Z,24.31
2016-07-18T01:37:04.475Z,24.32
2016-07-18T01:38:05.183Z,24.27
2016-07-18T01:39:04.486Z,24.22
2016-07-18T01:40:04.490Z,24.25
2016-07-18T01:41:04.494Z,24.21
2016-07-18T01:42:06.031Z,24.2
2016-07-18T01:43:04.504Z,24.22
2016-07-18T01:44:05.364Z,24.16
2016-07-18T01:45:04.512Z,24.18
2016-07-18T01:46:03.814Z,24.13
2016-07-18T01:47:03.818Z,24.13
2016-07-18T01:48:03.827Z,24.13
2016-07-18T01:49:04.539Z,24.09
2016-07-18T01:50:05.247Z,24.12
2016-07-18T01:51:03.843Z,24.1
2016-07-18T01:52:04.552Z,24.1
2016-07-18T01:53:04.558Z,24.18
2016-07-18T01:54:04.562Z,24.15
2016-07-18T01:55:04.715Z,24.15
2016-07-18T01:56:04.572Z,24.13
2016-07-18T01:57:04.575Z,24.18
2016-07-18T01:58:04.584Z,24.3
2016-07-18T01:59:04.585Z,24.27
2016-07-18T02:00:04.594Z,24.31
2016-07-18T02:01:04.596Z,24.31
2016-07-18T02:02:04.604Z,24.3
2016-07-18T02:03:03.897Z,24.21
2016-07-18T02:04:05.320Z,24.32
2016-07-18T02:05:04.619Z,24.28
2016-07-18T02:06:04.626Z,24.22
2016-07-18T02:07:05.334Z,24.3
2016-07-18T02:08:06.342Z,24.2
2016-07-18T02:09:05.346Z,24.27
2016-07-18T02:10:05.357Z,24.18
2016-07-18T02:11:04.652Z,24.13
2016-07-18T02:12:04.652Z,24.05
2016-07-18T02:13:05.369Z,24.03
2016-07-18T02:14:04.666Z,24.18
2016-07-18T02:15:05.377Z,24.13
2016-07-18T02:16:04.676Z,24.16
2016-07-18T02:17:04.685Z,24.09
2016-07-18T02:18:05.404Z,24.03
2016-07-18T02:19:05.855Z,24.09
2016-07-18T02:20:05.405Z,24.1
2016-07-18T02:21:05.408Z,24.13
2016-07-18T02:22:05.411Z,24.03
2016-07-18T02:23:05.418Z,24.03
2016-07-18T02:24:04.712Z,24.2
2016-07-18T02:25:04.721Z,24.09
2016-07-18T02:26:05.433Z,24.13
2016-07-18T02:27:04.027Z,24.15
2016-07-18T02:28:05.445Z,24.2
2016-07-18T02:29:04.744Z,24.21
2016-07-18T02:30:05.864Z,24.15
2016-07-18T02:31:05.460Z,24.16
2016-07-18T02:32:04.549Z,24.12
2016-07-18T02:33:04.765Z,24.15
2016-07-18T02:34:04.768Z,24.09
2016-07-18T02:35:04.774Z,24.05
2016-07-18T02:36:04.777Z,24.09
2016-07-18T02:37:04.076Z,23.98
2016-07-18T02:38:04.792Z,23.91
2016-07-18T02:39:04.788Z,24.02
2016-07-18T02:40:04.797Z,23.94
2016-07-18T02:41:05.649Z,23.95
2016-07-18T02:42:04.099Z,23.97
2016-07-18T02:43:04.099Z,23.98
2016-07-18T02:44:05.522Z,24.06
2016-07-18T02:45:05.523Z,24.1
2016-07-18T02:46:05.532Z,24.09
2016-07-18T02:47:05.534Z,24.08
2016-07-18T02:48:04.126Z,24.12
2016-07-18T02:49:04.837Z,24.1
2016-07-18T02:50:05.549Z,24.21
2016-07-18T02:51:05.553Z,24.2
2016-07-18T02:52:04.955Z,24.12
2016-07-18T02:53:04.157Z,24.18
2016-07-18T02:54:04.864Z,24.05
2016-07-18T02:55:04.872Z,24.21
2016-07-18T02:56:04.880Z,24.15
2016-07-18T02:57:04.170Z,24.2
2016-07-18T02:58:04.884Z,24.21
2016-07-18T02:59:04.188Z,24.18
2016-07-18T03:00:04.184Z,24.25
2016-07-18T03:01:04.903Z,24.16
2016-07-18T03:02:04.901Z,24.15
2016-07-18T03:03:05.866Z,24.09
2016-07-18T03:04:04.915Z,23.93
2016-07-18T03:05:04.215Z,24
2016-07-18T03:06:04.922Z,23.97
2016-07-18T03:07:04.233Z,24.06
2016-07-18T03:08:04.224Z,24.09
2016-07-18T03:09:05.643Z,24.08
2016-07-18T03:10:04.945Z,24.03
2016-07-18T03:11:04.953Z,24.1
2016-07-18T03:12:05.659Z,24.05
2016-07-18T03:13:05.662Z,24.06
2016-07-18T03:14:04.607Z,24.09
2016-07-18T03:15:04.970Z,24.1
2016-07-18T03:16:06.579Z,24
2016-07-18T03:17:04.976Z,23.88
2016-07-18T03:18:05.031Z,24.03
2016-07-18T03:19:04.997Z,23.93
2016-07-18T03:20:04.993Z,24.06
2016-07-18T03:21:05.710Z,24.1
2016-07-18T03:22:05.003Z,24.08
2016-07-18T03:23:05.010Z,24.03
2016-07-18T03:24:04.304Z,24.02
2016-07-18T03:25:05.017Z,23.88
2016-07-18T03:26:05.021Z,23.87
2016-07-18T03:27:06.841Z,23.87
2016-07-18T03:28:05.025Z,23.94
2016-07-18T03:29:04.679Z,23.94
2016-07-18T03:30:05.094Z,23.95
2016-07-18T03:31:05.753Z,24.05
2016-07-18T03:32:05.754Z,24.15
2016-07-18T03:33:05.059Z,24.16
2016-07-18T03:34:05.772Z,24.05
2016-07-18T03:35:05.771Z,24.12
2016-07-18T03:36:04.361Z,24.13
2016-07-18T03:37:05.787Z,24.16
2016-07-18T03:38:05.678Z,24.16
2016-07-18T03:39:05.083Z,24.09
2016-07-18T03:40:06.771Z,24.13
2016-07-18T03:41:05.095Z,24.03
2016-07-18T03:42:04.391Z,24.05
2016-07-18T03:43:05.101Z,24.02
2016-07-18T03:44:05.116Z,24.12
2016-07-18T03:45:05.820Z,24.12
2016-07-18T03:46:05.122Z,24.06
2016-07-18T03:47:05.832Z,24.02
2016-07-18T03:48:05.130Z,23.97
2016-07-18T03:49:06.045Z,24.08
2016-07-18T03:50:05.140Z,23.98
2016-07-18T03:51:05.146Z,24.02
2016-07-18T03:52:05.150Z,24.03
2016-07-18T03:53:05.156Z,24.02
2016-07-18T03:54:05.162Z,23.94
2016-07-18T03:55:05.167Z,24.06
2016-07-18T03:56:05.221Z,24.03
2016-07-18T03:57:05.221Z,24.1
2016-07-18T03:58:05.178Z,24.05
2016-07-18T03:59:05.895Z,24.06
2016-07-18T04:00:05.481Z,24.06
2016-07-18T04:01:05.901Z,24.08
2016-07-18T04:02:06.644Z,24.05
2016-07-18T04:03:05.210Z,24.06
2016-07-18T04:04:05.961Z,24.06
2016-07-18T04:05:05.217Z,24.02
2016-07-18T04:06:04.513Z,23.98
2016-07-18T04:07:05.225Z,24
2016-07-18T04:08:04.522Z,23.98
2016-07-18T04:09:05.944Z,24
2016-07-18T04:10:05.241Z,23.98
2016-07-18T04:11:05.138Z,24.02
2016-07-18T04:12:05.958Z,24
2016-07-18T04:13:05.263Z,24.06
2016-07-18T04:14:05.966Z,24.1
2016-07-18T04:15:05.812Z,24.12
2016-07-18T04:16:04.564Z,24.1
2016-07-18T04:17:05.273Z,24.21
2016-07-18T04:18:05.282Z,24.21
2016-07-18T04:19:05.287Z,24.22
2016-07-18T04:20:05.289Z,24.16
2016-07-18T04:21:05.297Z,24.22
2016-07-18T04:22:05.300Z,24.13
2016-07-18T04:23:06.014Z,24.03
2016-07-18T04:24:06.732Z,24.1
2016-07-18T04:25:04.607Z,24.16
2016-07-18T04:26:05.972Z,24.08
2016-07-18T04:27:05.323Z,24
2016-07-18T04:28:05.333Z,24.06
2016-07-18T04:29:05.338Z,23.97
2016-07-18T04:30:04.633Z,24.05
2016-07-18T04:31:06.053Z,24.05
2016-07-18T04:32:05.350Z,24.16
2016-07-18T04:33:05.357Z,24.09
2016-07-18T04:34:06.067Z,24.03
2016-07-18T04:35:06.780Z,23.95
2016-07-18T04:36:06.080Z,23.94
2016-07-18T04:37:06.081Z,23.93
2016-07-18T04:38:05.385Z,24.09
2016-07-18T04:39:06.092Z,24.05
2016-07-18T04:40:04.684Z,24.05
2016-07-18T04:41:04.684Z,24.02
2016-07-18T04:42:04.700Z,23.94
2016-07-18T04:43:06.111Z,23.84
2016-07-18T04:44:05.404Z,23.91
2016-07-18T04:45:06.117Z,23.88
2016-07-18T04:46:07.222Z,23.97
2016-07-18T04:47:04.714Z,23.95
2016-07-18T04:48:06.430Z,23.83
2016-07-18T04:49:05.434Z,23.83
2016-07-18T04:50:05.437Z,23.9
2016-07-18T04:51:05.436Z,23.94
2016-07-18T04:52:05.443Z,24.09
2016-07-18T04:53:06.162Z,24.02
2016-07-18T04:54:06.175Z,24.05
2016-07-18T04:55:05.454Z,24.1
2016-07-18T04:56:04.750Z,24.37
2016-07-18T04:57:06.568Z,24.47
2016-07-18T04:58:05.464Z,24.53
2016-07-18T04:59:05.868Z,24.62
2016-07-18T05:00:05.476Z,24.71
2016-07-18T05:01:06.444Z,24.78
2016-07-18T05:02:06.194Z,24.8
2016-07-18T05:03:06.202Z,24.85
2016-07-18T05:04:05.505Z,24.88
2016-07-18T05:05:05.501Z,24.88
2016-07-18T05:06:05.503Z,24.96
2016-07-18T05:07:05.510Z,24.96
2016-07-18T05:08:05.518Z,24.93
2016-07-18T05:09:05.526Z,25.06
2016-07-18T05:10:05.528Z,25.09
2016-07-18T05:11:05.537Z,25.09
2016-07-18T05:12:07.366Z,25.1
2016-07-18T05:13:05.549Z,25.24
2016-07-18T05:14:06.261Z,25.27
2016-07-18T05:15:05.576Z,25.21
2016-07-18T05:16:06.282Z,25.25
2016-07-18T05:17:05.573Z,25.39
2016-07-18T05:18:06.289Z,25.43
2016-07-18T05:19:05.588Z,25.46
2016-07-18T05:20:05.598Z,25.38
2016-07-18T05:21:05.197Z,25.43
2016-07-18T05:22:05.612Z,25.47
2016-07-18T05:23:04.911Z,25.46
2016-07-18T05:24:05.627Z,25.55
2016-07-18T05:25:04.925Z,25.5
2016-07-18T05:26:04.938Z,25.51
2016-07-18T05:27:05.650Z,25.55
2016-07-18T05:28:06.366Z,25.61
2016-07-18T05:29:05.671Z,25.6
2016-07-18T05:30:05.680Z,25.62
2016-07-18T05:31:06.393Z,25.65
2016-07-18T05:32:05.688Z,25.73
2016-07-18T05:33:05.044Z,25.79
2016-07-18T05:34:06.709Z,25.8
2016-07-18T05:35:06.426Z,25.79
2016-07-18T05:36:05.017Z,25.72
2016-07-18T05:37:05.028Z,25.72
2016-07-18T05:38:05.742Z,25.69
2016-07-18T05:39:06.458Z,25.57
2016-07-18T05:40:05.758Z,25.55
2016-07-18T05:41:05.073Z,25.55
2016-07-18T05:42:06.493Z,25.51
2016-07-18T05:43:05.077Z,25.52
2016-07-18T05:44:05.084Z,25.46
2016-07-18T05:45:05.998Z,25.52
2016-07-18T05:46:05.806Z,25.43
2016-07-18T05:47:05.814Z,25.45
2016-07-18T05:48:05.818Z,25.43
2016-07-18T05:49:05.123Z,25.45
2016-07-18T05:50:05.124Z,25.43
2016-07-18T05:51:05.843Z,25.51
2016-07-18T05:52:05.852Z,25.38
2016-07-18T05:53:05.862Z,25.42
2016-07-18T05:54:06.581Z,25.33
2016-07-18T05:55:05.163Z,25.38
2016-07-18T05:56:07.198Z,25.39
2016-07-18T05:57:06.590Z,25.42
2016-07-18T05:58:07.762Z,25.32
2016-07-18T05:59:06.652Z,25.2
2016-07-18T06:00:05.196Z,25.2
2016-07-18T06:01:05.905Z,25.35
2016-07-18T06:02:05.915Z,25.24
2016-07-18T06:03:06.624Z,25.25
2016-07-18T06:04:05.928Z,25.24
2016-07-18T06:05:05.225Z,25.21
2016-07-18T06:06:05.937Z,25.36
2016-07-18T06:07:06.652Z,25.36
2016-07-18T06:08:05.950Z,25.36
2016-07-18T06:09:07.770Z,25.23
2016-07-18T06:10:06.669Z,25.24
2016-07-18T06:11:05.263Z,25.21
2016-07-18T06:12:05.975Z,25.25
2016-07-18T06:13:05.980Z,25.17
2016-07-18T06:14:05.989Z,25.18
2016-07-18T06:15:06.698Z,25.14
2016-07-18T06:16:06.005Z,25.27
2016-07-18T06:17:06.003Z,25.33
2016-07-18T06:18:06.012Z,25.21
2016-07-18T06:19:05.311Z,25.23
2016-07-18T06:20:07.859Z,25.23
2016-07-18T06:21:06.029Z,25.33
2016-07-18T06:22:06.047Z,25.36
2016-07-18T06:23:05.334Z,25.38
2016-07-18T06:24:05.342Z,25.4
2016-07-18T06:25:06.764Z,25.35
2016-07-18T06:26:06.767Z,25.36
2016-07-18T06:27:06.773Z,25.43
2016-07-18T06:28:05.365Z,25.43
2016-07-18T06:29:06.380Z,25.5
2016-07-18T06:30:06.792Z,25.47
2016-07-18T06:31:06.945Z,25.51
2016-07-18T06:32:06.806Z,25.54
2016-07-18T06:33:06.149Z,25.47
2016-07-18T06:34:06.159Z,25.42
2016-07-18T06:35:05.409Z,25.42
2016-07-18T06:36:06.835Z,25.43
2016-07-18T06:37:06.836Z,25.42
2016-07-18T06:38:05.432Z,25.43
2016-07-18T06:39:06.853Z,25.38
2016-07-18T06:40:06.154Z,25.39
2016-07-18T06:41:06.158Z,25.45
2016-07-18T06:42:07.017Z,25.4
2016-07-18T06:43:06.174Z,25.47
2016-07-18T06:44:06.184Z,25.46
2016-07-18T06:45:06.893Z,25.42
2016-07-18T06:46:06.902Z,25.46
2016-07-18T06:47:06.198Z,25.45
2016-07-18T06:48:06.928Z,25.36
2016-07-18T06:49:06.919Z,25.36
2016-07-18T06:50:05.515Z,25.46
2016-07-18T06:51:05.529Z,25.38
2016-07-18T06:52:05.527Z,25.38
2016-07-18T06:53:07.150Z,25.45
2016-07-18T06:54:05.543Z,25.35
2016-07-18T06:55:07.650Z,25.5
2016-07-18T06:56:06.264Z,25.43
2016-07-18T06:57:06.276Z,25.46
2016-07-18T06:58:06.987Z,25.39
2016-07-18T06:59:06.992Z,25.36
2016-07-18T07:00:07.001Z,25.43
2016-07-18T07:01:07.058Z,25.46
2016-07-18T07:02:06.307Z,25.4
2016-07-18T07:03:07.018Z,25.5
2016-07-18T07:04:06.623Z,25.47
2016-07-18T07:05:06.328Z,25.42
2016-07-18T07:06:08.112Z,25.43
2016-07-18T07:07:06.341Z,25.51
2016-07-18T07:08:06.359Z,25.43
2016-07-18T07:09:06.359Z,25.6
2016-07-18T07:10:07.075Z,25.61
2016-07-18T07:11:07.077Z,25.6
2016-07-18T07:12:06.375Z,25.7
2016-07-18T07:13:06.384Z,25.67
2016-07-18T07:14:06.392Z,25.6
2016-07-18T07:15:06.143Z,25.57
2016-07-18T07:16:06.407Z,25.6
2016-07-18T07:17:07.385Z,25.64
2016-07-18T07:18:06.423Z,25.72
2016-07-18T07:19:07.134Z,25.65
2016-07-18T07:20:05.730Z,25.69
2016-07-18T07:21:07.150Z,25.67
2016-07-18T07:22:05.741Z,25.65
2016-07-18T07:23:06.460Z,25.72
2016-07-18T07:24:07.170Z,25.7
2016-07-18T07:25:06.471Z,25.6
2016-07-18T07:26:07.188Z,25.6
2016-07-18T07:27:06.487Z,25.67
2016-07-18T07:28:06.494Z,25.76
2016-07-18T07:29:06.497Z,25.79
2016-07-18T07:30:07.213Z,25.79
2016-07-18T07:31:06.512Z,25.82
2016-07-18T07:32:07.226Z,25.88
2016-07-18T07:33:07.234Z,25.87
2016-07-18T07:34:06.538Z,25.88
2016-07-18T07:35:07.250Z,26.1
2016-07-18T07:36:05.841Z,26.09
2016-07-18T07:37:07.267Z,26.01
2016-07-18T07:38:07.273Z,26.05
2016-07-18T07:39:05.867Z,26.05
2016-07-18T07:40:07.290Z,26.1
2016-07-18T07:41:06.639Z,26.06
2016-07-18T07:42:06.608Z,26.1
2016-07-18T07:43:07.314Z,26.01
2016-07-18T07:44:06.629Z,25.99
2016-07-18T07:45:06.626Z,26.12
2016-07-18T07:46:06.634Z,25.97
2016-07-18T07:47:06.640Z,26.02
2016-07-18T07:48:06.646Z,25.9
2016-07-18T07:49:06.658Z,25.92
2016-07-18T07:50:08.170Z,25.88
2016-07-18T07:51:06.673Z,25.82
2016-07-18T07:52:07.387Z,25.85
2016-07-18T07:53:06.689Z,25.85
2016-07-18T07:54:06.694Z,25.85
2016-07-18T07:55:06.009Z,25.87
2016-07-18T07:56:07.420Z,25.7
2016-07-18T07:57:07.428Z,25.76
2016-07-18T07:58:07.432Z,25.79
2016-07-18T07:59:06.736Z,25.83
2016-07-18T08:00:06.033Z,25.79
2016-07-18T08:01:07.003Z,25.75
2016-07-18T08:02:07.513Z,25.77
2016-07-18T08:03:06.768Z,25.7
2016-07-18T08:04:06.772Z,25.73
2016-07-18T08:05:07.730Z,25.76
2016-07-18T08:06:06.078Z,25.87
2016-07-18T08:07:07.500Z,25.83
2016-07-18T08:08:06.101Z,25.98
2016-07-18T08:09:07.516Z,26.01
2016-07-18T08:10:06.818Z,26.12
2016-07-18T08:11:06.827Z,26.12
2016-07-18T08:12:07.587Z,26.18
2016-07-18T08:13:06.134Z,26.09
2016-07-18T08:14:06.848Z,26.01
2016-07-18T08:15:06.851Z,25.98
2016-07-18T08:16:07.370Z,25.92
2016-07-18T08:17:06.870Z,25.9
2016-07-18T08:18:07.584Z,26.01
2016-07-18T08:19:06.884Z,25.9
2016-07-18T08:20:07.597Z,25.88
2016-07-18T08:21:06.896Z,25.9
2016-07-18T08:22:06.906Z,25.85
2016-07-18T08:23:06.201Z,25.9
2016-07-18T08:24:07.625Z,25.88
2016-07-18T08:25:06.930Z,25.91
2016-07-18T08:26:06.939Z,25.85
2016-07-18T08:27:07.591Z,25.87
2016-07-18T08:28:07.656Z,25.9
2016-07-18T08:29:06.953Z,25.85
2016-07-18T08:30:06.968Z,25.82
2016-07-18T08:31:06.261Z,25.73
2016-07-18T08:32:06.978Z,25.76
2016-07-18T08:33:06.991Z,25.83
2016-07-18T08:34:07.701Z,25.85
2016-07-18T08:35:06.293Z,25.79
2016-07-18T08:36:08.517Z,25.76
2016-07-18T08:37:07.013Z,25.76
2016-07-18T08:38:07.820Z,25.75
2016-07-18T08:39:07.737Z,25.8
2016-07-18T08:40:07.739Z,25.82
2016-07-18T08:41:07.042Z,25.85
2016-07-18T08:42:07.755Z,25.72
2016-07-18T08:43:07.761Z,25.82
2016-07-18T08:44:07.063Z,25.85
2016-07-18T08:45:07.070Z,25.73
2016-07-18T08:46:07.083Z,25.92
2016-07-18T08:47:08.211Z,25.87
2016-07-18T08:48:06.388Z,25.9
2016-07-18T08:49:07.491Z,25.9
2016-07-18T08:50:06.398Z,25.88
2016-07-18T08:51:08.921Z,25.83
2016-07-18T08:52:07.121Z,25.82
2016-07-18T08:53:07.127Z,25.82
2016-07-18T08:54:06.424Z,25.82
2016-07-18T08:55:07.847Z,25.91
2016-07-18T08:56:06.441Z,25.88
2016-07-18T08:57:06.445Z,25.85
2016-07-18T08:58:07.165Z,25.85
2016-07-18T08:59:07.873Z,25.85
2016-07-18T09:00:07.978Z,25.82
2016-07-18T09:01:07.892Z,25.85
2016-07-18T09:02:07.191Z,25.87
2016-07-18T09:03:06.545Z,25.92
2016-07-18T09:04:07.908Z,25.87
2016-07-18T09:05:07.930Z,25.9
2016-07-18T09:06:06.512Z,25.88
2016-07-18T09:07:07.928Z,25.87
2016-07-18T09:08:07.941Z,25.87
2016-07-18T09:09:07.946Z,25.88
2016-07-18T09:10:07.249Z,25.87
2016-07-18T09:11:08.263Z,25.9
2016-07-18T09:12:07.964Z,25.9
2016-07-18T09:13:06.561Z,25.97
2016-07-18T09:14:07.272Z,25.83
2016-07-18T09:15:07.279Z,25.88
2016-07-18T09:16:07.995Z,25.83
2016-07-18T09:17:06.588Z,25.83
2016-07-18T09:18:08.004Z,25.92
2016-07-18T09:19:07.309Z,25.85
2016-07-18T09:20:07.316Z,25.98
2016-07-18T09:21:08.030Z,25.9
2016-07-18T09:22:08.033Z,25.87
2016-07-18T09:23:07.344Z,25.91
2016-07-18T09:24:08.393Z,25.95
2016-07-18T09:25:08.054Z,25.88
2016-07-18T09:26:07.359Z,25.88
2016-07-18T09:27:06.663Z,26.01
2016-07-18T09:28:07.371Z,25.94
2016-07-18T09:29:07.379Z,25.98
2016-07-18T09:30:07.387Z,25.99
2016-07-18T09:31:08.102Z,26.02
2016-07-18T09:32:07.397Z,25.97
2016-07-18T09:33:08.110Z,25.98
2016-07-18T09:34:08.121Z,26.05
2016-07-18T09:35:09.237Z,25.98
2016-07-18T09:36:07.428Z,25.99
2016-07-18T09:37:07.434Z,26.01
2016-07-18T09:38:07.440Z,26.02
2016-07-18T09:39:07.452Z,25.97
2016-07-18T09:40:08.162Z,26.01
2016-07-18T09:41:08.169Z,26.02
2016-07-18T09:42:06.770Z,26.05
2016-07-18T09:43:08.193Z,26.09
2016-07-18T09:44:07.485Z,25.97
2016-07-18T09:45:07.494Z,26.12
2016-07-18T09:46:08.499Z,26.06
2016-07-18T09:47:07.567Z,26.09
2016-07-18T09:48:07.777Z,26.12
2016-07-18T09:49:07.651Z,26.12
2016-07-18T09:50:07.853Z,26.17
2016-07-18T09:51:07.740Z,26.12
2016-07-18T09:52:07.587Z,26.12
2016-07-18T09:53:07.549Z,26.15
2016-07-18T09:54:07.571Z,26.12
2016-07-18T09:55:07.572Z,26.1
2016-07-18T09:56:07.570Z,26.12
2016-07-18T09:57:08.810Z,26.13
2016-07-18T09:58:07.100Z,26.25
2016-07-18T09:59:07.203Z,26.2
2016-07-18T10:00:08.041Z,26.13
2016-07-18T10:01:08.420Z,26.09
2016-07-18T10:02:08.252Z,26.06
2016-07-18T10:03:09.172Z,26.05
2016-07-18T10:04:07.634Z,26.1
2016-07-18T10:05:07.384Z,26.13
2016-07-18T10:06:07.641Z,26.12
2016-07-18T10:07:08.396Z,26.13
2016-07-18T10:08:08.497Z,26.01
2016-07-18T10:09:07.451Z,26.06
2016-07-18T10:10:08.431Z,26.13
2016-07-18T10:11:08.382Z,26.09
2016-07-18T10:12:08.397Z,26.07
2016-07-18T10:13:08.501Z,26.07
2016-07-18T10:14:08.410Z,26.05
2016-07-18T10:15:07.710Z,26.09
2016-07-18T10:16:08.425Z,26.13
2016-07-18T10:17:07.728Z,26.07
2016-07-18T10:18:07.740Z,26.15
2016-07-18T10:19:08.607Z,26.06
2016-07-18T10:20:08.456Z,26.09
2016-07-18T10:21:07.048Z,26.09
2016-07-18T10:22:07.766Z,25.98
2016-07-18T10:23:07.776Z,26.1
2016-07-18T10:24:07.792Z,26.09
2016-07-18T10:25:07.784Z,26.15
2016-07-18T10:26:07.792Z,26.12
2016-07-18T10:27:08.511Z,26.12
2016-07-18T10:28:07.806Z,26.1
2016-07-18T10:29:07.817Z,26.13
2016-07-18T10:30:07.819Z,26.1
2016-07-18T10:31:07.124Z,26.12
2016-07-18T10:32:09.057Z,26.09
2016-07-18T10:33:08.553Z,26.17
2016-07-18T10:34:08.355Z,26.17
2016-07-18T10:35:08.566Z,26.12
2016-07-18T10:36:07.866Z,26.15
2016-07-18T10:37:07.166Z,26.1
2016-07-18T10:38:07.891Z,26.18
2016-07-18T10:39:08.595Z,26.15
2016-07-18T10:40:07.188Z,26.18
2016-07-18T10:41:07.644Z,26.26
2016-07-18T10:42:07.909Z,26.21
2016-07-18T10:43:07.917Z,26.1
2016-07-18T10:44:07.923Z,26.21
2016-07-18T10:45:09.041Z,26.13
2016-07-18T10:46:07.938Z,26.17
2016-07-18T10:47:08.652Z,26.12
2016-07-18T10:48:07.952Z,26.15
2016-07-18T10:49:07.256Z,26.15
2016-07-18T10:50:07.260Z,26.18
2016-07-18T10:51:07.974Z,26.15
2016-07-18T10:52:07.290Z,26.21
2016-07-18T10:53:07.281Z,26.23
2016-07-18T10:54:09.170Z,26.13
2016-07-18T10:55:08.010Z,26.23
2016-07-18T10:56:08.509Z,26.21
2016-07-18T10:57:08.020Z,26.25
2016-07-18T10:58:08.033Z,26.21
2016-07-18T10:59:08.034Z,26.21
2016-07-18T11:00:07.354Z,26.21
2016-07-18T11:01:08.050Z,26.21
2016-07-18T11:02:07.349Z,26.29
2016-07-18T11:03:08.117Z,26.3
2016-07-18T11:04:08.788Z,26.3
2016-07-18T11:05:09.585Z,26.32
2016-07-18T11:06:07.404Z,26.28
2016-07-18T11:07:08.823Z,26.3
2016-07-18T11:08:07.392Z,26.23
2016-07-18T11:09:08.126Z,26.26
2016-07-18T11:10:08.824Z,26.25
2016-07-18T11:11:08.125Z,26.26
2016-07-18T11:12:08.840Z,26.18
2016-07-18T11:13:08.140Z,26.18
2016-07-18T11:14:08.152Z,26.2
2016-07-18T11:15:08.153Z,26.23
2016-07-18T11:16:09.720Z,26.3
2016-07-18T11:17:08.166Z,26.32
2016-07-18T11:18:08.228Z,26.2
2016-07-18T11:19:07.473Z,26.23
2016-07-18T11:20:08.311Z,26.26
2016-07-18T11:21:08.906Z,26.26
2016-07-18T11:22:08.206Z,26.26
2016-07-18T11:23:08.921Z,26.25
2016-07-18T11:24:08.926Z,26.25
2016-07-18T11:25:08.937Z,26.33
2016-07-18T11:26:08.233Z,26.25
2016-07-18T11:27:09.801Z,26.35
2016-07-18T11:28:07.543Z,26.28
2016-07-18T11:29:07.751Z,26.32
2016-07-18T11:30:08.271Z,26.3
2016-07-18T11:31:09.830Z,26.32
2016-07-18T11:32:08.278Z,26.25
2016-07-18T11:33:08.286Z,26.3
2016-07-18T11:34:08.294Z,26.28
2016-07-18T11:35:08.298Z,26.3
2016-07-18T11:36:07.606Z,26.32
2016-07-18T11:37:08.323Z,26.29
2016-07-18T11:38:08.322Z,26.26
2016-07-18T11:39:09.039Z,26.3
2016-07-18T11:40:09.872Z,26.33
2016-07-18T11:41:08.347Z,26.28
2016-07-18T11:42:09.874Z,26.26
2016-07-18T11:43:09.069Z,26.21
2016-07-18T11:44:07.659Z,26.21
2016-07-18T11:45:08.376Z,26.26
2016-07-18T11:46:08.431Z,26.28
2016-07-18T11:47:09.109Z,26.23
2016-07-18T11:48:08.396Z,26.28
2016-07-18T11:49:08.400Z,26.28
2016-07-18T11:50:08.413Z,26.25
2016-07-18T11:51:08.417Z,26.21
2016-07-18T11:52:08.425Z,26.26
2016-07-18T11:53:08.581Z,26.21
2016-07-18T11:54:08.546Z,26.23
2016-07-18T11:55:09.155Z,26.2
2016-07-18T11:56:09.162Z,26.25
2016-07-18T11:57:09.169Z,26.25
2016-07-18T11:58:09.175Z,26.21
2016-07-18T11:59:08.477Z,26.25
2016-07-18T12:00:09.194Z,26.21
2016-07-18T12:01:08.489Z,26.3
2016-07-18T12:02:10.332Z,26.18
2016-07-18T12:03:07.900Z,26.23
2016-07-18T12:04:08.915Z,26.36
2016-07-18T12:05:08.520Z,26.32
2016-07-18T12:06:10.238Z,26.29
2016-07-18T12:07:09.244Z,26.33
2016-07-18T12:08:08.541Z,26.32
2016-07-18T12:09:08.556Z,26.32
2016-07-18T12:10:08.556Z,26.32
2016-07-18T12:11:08.577Z,26.28
2016-07-18T12:12:08.573Z,26.3
2016-07-18T12:13:09.690Z,26.28
2016-07-18T12:14:09.293Z,26.35
2016-07-18T12:15:09.307Z,26.33
2016-07-18T12:16:08.614Z,26.33
2016-07-18T12:17:10.373Z,26.32
2016-07-18T12:18:08.617Z,26.29
2016-07-18T12:19:09.329Z,26.28
2016-07-18T12:20:09.341Z,26.28
2016-07-18T12:21:08.640Z,26.28
2016-07-18T12:22:07.951Z,26.3
2016-07-18T12:23:07.948Z,26.25
2016-07-18T12:24:07.955Z,26.3
2016-07-18T12:25:09.374Z,26.25
2016-07-18T12:26:08.676Z,26.32
2016-07-18T12:27:09.391Z,26.26
2016-07-18T12:28:09.894Z,26.29
2016-07-18T12:29:09.402Z,26.35
2016-07-18T12:30:08.703Z,26.29
2016-07-18T12:31:08.714Z,26.28
2016-07-18T12:32:08.724Z,26.32
2016-07-18T12:33:08.728Z,26.23
2016-07-18T12:34:09.441Z,26.26
2016-07-18T12:35:09.452Z,26.32
2016-07-18T12:36:08.755Z,26.3
2016-07-18T12:37:08.760Z,26.35
2016-07-18T12:38:09.474Z,26.33
2016-07-18T12:39:09.984Z,26.32
2016-07-18T12:40:09.484Z,26.33
2016-07-18T12:41:08.791Z,26.32
2016-07-18T12:42:09.501Z,26.25
2016-07-18T12:43:09.573Z,26.37
2016-07-18T12:44:09.516Z,26.3
2016-07-18T12:45:09.522Z,26.3
2016-07-18T12:46:09.533Z,26.29
2016-07-18T12:47:08.998Z,26.37
2016-07-18T12:48:08.842Z,26.28
2016-07-18T12:49:08.841Z,26.25
2016-07-18T12:50:09.853Z,26.23
2016-07-18T12:51:09.562Z,26.26
2016-07-18T12:52:08.951Z,26.29
2016-07-18T12:53:09.579Z,26.35
2016-07-18T12:54:08.879Z,26.3
2016-07-18T12:55:08.972Z,26.33
2016-07-18T12:56:09.599Z,26.32